Portada
METAR-TAF:

METAR-TAF

Aeropuertos :

Pionyang, Corea del Norte

Aeropuerto Internacional de Sunan

latitud: 39-02N, longitud: 125-47E, altitud: 36 m

METAR: falta

Hora: 19:44 (11:14 UTC)

Pronóstico

El informe se hizo hace 5 horas y 44 minutos, a las 05:30 UTC
Pronóstico válido del 29 a las 06 UTC al 30 a las 06 UTC
Viento 10 kt del norte-noroeste
Visibilidad 10 km o más
sin nubes por debajo de 1500 m y sin presencia de cumulonimbus.
Evolucionando progresivamente
del 29 a las 16 UTC al 29 a las 18 UTC
Viento 6 kt del sur-sureste

TAF: ZKPY 290530Z 2906/3006 34005MPS CAVOK BECMG 2916/2918 16003MPS

Observaciones y pronósticos meteorológicos de más de 4000 aeropuertos (mensajes METAR y TAF).

Los puntos amarillos y rojos representan las estaciones disponibles.

Ponga el ratón en el punto deseado para ver el nombre de la estación.

Haga clic para ver las observaciones y los pronósticos meteorológicos.

Para cambiar el mapa : haga clic en los botones verdes con una cruz de color negro para hacer un zoom, en el botón verde con un guión para alejar o en las flechas verdes para mapas adyacentes.


METAR-TAF: